createdAt,value
2018-02-24T00:00:10.164Z,62.56
2018-02-24T00:00:36.283Z,62.56
2018-02-24T00:01:02.432Z,62.56
2018-02-24T00:01:28.554Z,62.47
2018-02-24T00:01:54.662Z,62.75
2018-02-24T00:02:20.778Z,62.37
2018-02-24T00:02:46.943Z,62.75
2018-02-24T00:03:13.075Z,62.94
2018-02-24T00:03:39.193Z,62.56
2018-02-24T00:04:05.308Z,62.75
2018-02-24T00:04:31.417Z,62.56
2018-02-24T00:04:57.550Z,62.94
2018-02-24T00:05:23.666Z,62.66
2018-02-24T00:05:49.777Z,62.66
2018-02-24T00:06:15.914Z,62.37
2018-02-24T00:06:42.019Z,62.75
2018-02-24T00:07:08.132Z,62.81
2018-02-24T00:07:34.246Z,63
2018-02-24T00:08:00.352Z,63.32
2018-02-24T00:08:26.470Z,63.19
2018-02-24T00:08:52.581Z,62.94
2018-02-24T00:09:18.704Z,63.13
2018-02-24T00:09:44.816Z,63
2018-02-24T00:10:10.925Z,62.85
2018-02-24T00:10:37.048Z,63.1
2018-02-24T00:11:03.161Z,63.6
2018-02-24T00:11:29.291Z,63.13
2018-02-24T00:11:55.422Z,63.04
2018-02-24T00:12:21.556Z,63.13
2018-02-24T00:12:47.666Z,62.94
2018-02-24T00:13:13.777Z,62.85
2018-02-24T00:13:39.890Z,63.04
2018-02-24T00:14:06.004Z,62.66
2018-02-24T00:14:32.188Z,62.94
2018-02-24T00:14:58.221Z,62.75
2018-02-24T00:15:24.336Z,62.75
2018-02-24T00:15:50.452Z,63.19
2018-02-24T00:16:16.561Z,63.13
2018-02-24T00:16:42.679Z,63.04
2018-02-24T00:17:08.808Z,62.85
2018-02-24T00:17:34.927Z,62.37
2018-02-24T00:18:01.040Z,62.37
2018-02-24T00:18:27.147Z,62.56
2018-02-24T00:18:53.257Z,62.47
2018-02-24T00:19:19.375Z,62.34
2018-02-24T00:19:45.487Z,62.56
2018-02-24T00:20:11.599Z,63.04
2018-02-24T00:20:37.736Z,63.13
2018-02-24T00:21:03.824Z,63.04
2018-02-24T00:21:29.940Z,62.81
2018-02-24T00:21:56.050Z,62.56
2018-02-24T00:22:22.160Z,63.04
2018-02-24T00:22:48.275Z,62.85
2018-02-24T00:23:14.404Z,62.56
2018-02-24T00:23:40.520Z,62.34
2018-02-24T00:24:06.630Z,62.37
2018-02-24T00:24:32.747Z,62.75
2018-02-24T00:24:58.862Z,62.37
2018-02-24T00:25:24.971Z,62.56
2018-02-24T00:25:51.083Z,62.56
2018-02-24T00:26:17.197Z,62.28
2018-02-24T00:26:43.327Z,62.56
2018-02-24T00:27:09.418Z,62.66
2018-02-24T00:27:35.555Z,62.85
2018-02-24T00:28:01.665Z,62.56
2018-02-24T00:28:27.783Z,62.18
2018-02-24T00:28:53.890Z,62.37
2018-02-24T00:29:20.007Z,62.18
2018-02-24T00:29:46.115Z,62.37
2018-02-24T00:30:12.226Z,62.47
2018-02-24T00:30:38.341Z,61.99
2018-02-24T00:31:04.449Z,62.37
2018-02-24T00:31:30.562Z,62.09
2018-02-24T00:31:56.674Z,61.99
2018-02-24T00:32:22.790Z,62.09
2018-02-24T00:32:48.898Z,61.9
2018-02-24T00:33:15.016Z,62.09
2018-02-24T00:33:41.131Z,62.37
2018-02-24T00:34:07.242Z,61.99
2018-02-24T00:34:33.357Z,62.09
2018-02-24T00:34:59.462Z,61.99
2018-02-24T00:35:25.578Z,62.18
2018-02-24T00:35:51.687Z,62.18
2018-02-24T00:36:17.800Z,62.56
2018-02-24T00:36:43.913Z,62.75
2018-02-24T00:37:10.021Z,62.56
2018-02-24T00:37:36.136Z,62.75
2018-02-24T00:38:02.269Z,62.53
2018-02-24T00:38:28.401Z,62.75
2018-02-24T00:38:54.520Z,63
2018-02-24T00:39:20.626Z,63.04
2018-02-24T00:39:46.735Z,62.72
2018-02-24T00:40:12.844Z,62.75
2018-02-24T00:40:38.955Z,63.23
2018-02-24T00:41:05.067Z,63.04
2018-02-24T00:41:31.182Z,62.75
2018-02-24T00:41:57.296Z,63.42
2018-02-24T00:42:23.426Z,63.32
2018-02-24T00:42:49.536Z,63.32
2018-02-24T00:43:15.653Z,63
2018-02-24T00:43:41.761Z,62.56
2018-02-24T00:44:07.884Z,62.62
2018-02-24T00:44:34.018Z,62.15
2018-02-24T00:45:00.126Z,62.85
2018-02-24T00:45:26.239Z,62.72
2018-02-24T00:45:52.348Z,62.37
2018-02-24T00:46:18.483Z,62.44
2018-02-24T00:46:44.592Z,62.81
2018-02-24T00:47:10.704Z,62.47
2018-02-24T00:47:36.820Z,62.44
2018-02-24T00:48:02.932Z,62.53
2018-02-24T00:48:29.044Z,63.1
2018-02-24T00:48:55.156Z,63.19
2018-02-24T00:49:21.275Z,63.29
2018-02-24T00:49:47.378Z,63
2018-02-24T00:50:13.495Z,62.91
2018-02-24T00:50:39.626Z,62.91
2018-02-24T00:51:05.752Z,63.1
2018-02-24T00:51:31.868Z,63.19
2018-02-24T00:51:57.977Z,62.91
2018-02-24T00:52:24.090Z,62.81
2018-02-24T00:52:50.207Z,63
2018-02-24T00:53:16.315Z,63.19
2018-02-24T00:53:42.431Z,63.19
2018-02-24T00:54:08.539Z,63.19
2018-02-24T00:54:34.652Z,63.1
2018-02-24T00:55:00.765Z,62.94
2018-02-24T00:55:26.876Z,63.13
2018-02-24T00:55:53.012Z,62.91
2018-02-24T00:56:19.120Z,62.91
2018-02-24T00:56:45.238Z,62.62
2018-02-24T00:57:11.348Z,63.32
2018-02-24T00:57:37.486Z,62.44
2018-02-24T00:58:03.591Z,62.53
2018-02-24T00:58:29.711Z,62.53
2018-02-24T00:58:55.825Z,62.44
2018-02-24T00:59:21.932Z,62.81
2018-02-24T00:59:48.043Z,62.72
2018-02-24T01:00:14.167Z,62.53
2018-02-24T01:00:40.274Z,62.34
2018-02-24T01:01:06.381Z,62.34
2018-02-24T01:01:32.495Z,62.72
2018-02-24T01:01:58.625Z,62.72
2018-02-24T01:02:24.756Z,62.81
2018-02-24T01:02:50.868Z,62.81
2018-02-24T01:03:16.984Z,62.53
2018-02-24T01:03:43.088Z,62.44
2018-02-24T01:04:09.197Z,62.34
2018-02-24T01:04:35.313Z,62.56
2018-02-24T01:05:01.424Z,62.53
2018-02-24T01:05:27.536Z,62.66
2018-02-24T01:05:53.652Z,62.25
2018-02-24T01:06:19.757Z,62.34
2018-02-24T01:06:45.880Z,61.96
2018-02-24T01:07:11.990Z,62.25
2018-02-24T01:07:38.104Z,62.53
2018-02-24T01:08:04.216Z,62.72
2018-02-24T01:08:30.359Z,62.72
2018-02-24T01:08:56.466Z,62.34
2018-02-24T01:09:22.586Z,62.53
2018-02-24T01:09:48.716Z,63.29
2018-02-24T01:10:14.833Z,63.29
2018-02-24T01:10:40.936Z,63.19
2018-02-24T01:11:07.051Z,63.1
2018-02-24T01:11:33.159Z,62.72
2018-02-24T01:11:59.274Z,62.53
2018-02-24T01:12:25.391Z,62.53
2018-02-24T01:12:51.516Z,62.44
2018-02-24T01:13:17.625Z,62.44
2018-02-24T01:13:43.744Z,62.81
2018-02-24T01:14:09.851Z,62.72
2018-02-24T01:14:35.961Z,62.34
2018-02-24T01:15:02.078Z,62.34
2018-02-24T01:15:28.187Z,62.53
2018-02-24T01:15:54.305Z,62.44
2018-02-24T01:16:20.411Z,62.72
2018-02-24T01:16:46.526Z,62.72
2018-02-24T01:17:12.685Z,62.72
2018-02-24T01:17:38.795Z,62.81
2018-02-24T01:18:04.906Z,62.53
2018-02-24T01:18:31.023Z,63
2018-02-24T01:18:57.130Z,62.62
2018-02-24T01:19:23.248Z,63.19
2018-02-24T01:19:49.362Z,62.53
2018-02-24T01:20:15.479Z,62.34
2018-02-24T01:20:41.605Z,62.72
2018-02-24T01:21:07.773Z,62.72
2018-02-24T01:21:33.823Z,62.72
2018-02-24T01:21:59.940Z,62.34
2018-02-24T01:22:26.049Z,62.53
2018-02-24T01:22:52.167Z,62.44
2018-02-24T01:23:18.278Z,62.62
2018-02-24T01:23:44.389Z,62.34
2018-02-24T01:24:10.502Z,62.53
2018-02-24T01:24:36.618Z,62.53
2018-02-24T01:25:02.725Z,62.81
2018-02-24T01:25:28.857Z,62.81
2018-02-24T01:25:54.968Z,62.44
2018-02-24T01:26:21.074Z,62.81
2018-02-24T01:26:47.190Z,63.19
2018-02-24T01:27:13.301Z,62.91
2018-02-24T01:27:39.414Z,63
2018-02-24T01:28:05.528Z,63.19
2018-02-24T01:28:31.643Z,63.1
2018-02-24T01:28:57.756Z,62.72
2018-02-24T01:29:23.874Z,63.1
2018-02-24T01:29:49.990Z,63.29
2018-02-24T01:30:16.103Z,63.1
2018-02-24T01:30:42.222Z,63.19
2018-02-24T01:31:08.341Z,63.19
2018-02-24T01:31:34.451Z,62.91
2018-02-24T01:32:00.586Z,62.81
2018-02-24T01:32:26.698Z,63
2018-02-24T01:32:52.816Z,63.29
2018-02-24T01:33:18.930Z,63
2018-02-24T01:33:45.040Z,63.1
2018-02-24T01:34:11.158Z,63.1
2018-02-24T01:34:37.266Z,62.62
2018-02-24T01:35:03.378Z,63.19
2018-02-24T01:35:29.491Z,62.72
2018-02-24T01:35:55.603Z,62.53
2018-02-24T01:36:21.710Z,62.72
2018-02-24T01:36:47.824Z,62.53
2018-02-24T01:37:13.959Z,62.53
2018-02-24T01:37:40.067Z,62.34
2018-02-24T01:38:06.179Z,62.53
2018-02-24T01:38:32.313Z,62.53
2018-02-24T01:38:58.425Z,62.72
2018-02-24T01:39:24.532Z,62.53
2018-02-24T01:39:50.648Z,62.62
2018-02-24T01:40:16.779Z,62.72
2018-02-24T01:40:42.890Z,62.72
2018-02-24T01:41:09.006Z,62.72
2018-02-24T01:41:35.115Z,62.81
2018-02-24T01:42:01.232Z,62.53
2018-02-24T01:42:27.344Z,62.44
2018-02-24T01:42:53.452Z,62.34
2018-02-24T01:43:19.562Z,62.72
2018-02-24T01:43:45.696Z,62.91
2018-02-24T01:44:11.813Z,62.25
2018-02-24T01:44:37.918Z,62.62
2018-02-24T01:45:04.035Z,62.81
2018-02-24T01:45:30.144Z,62.72
2018-02-24T01:45:56.282Z,62.72
2018-02-24T01:46:22.392Z,62.53
2018-02-24T01:46:48.508Z,62.81
2018-02-24T01:47:14.622Z,63
2018-02-24T01:47:40.737Z,62.81
2018-02-24T01:48:06.850Z,62.72
2018-02-24T01:48:32.959Z,62.53
2018-02-24T01:48:59.069Z,63.1
2018-02-24T01:49:25.180Z,63.19
2018-02-24T01:49:51.287Z,63.1
2018-02-24T01:50:17.401Z,63
2018-02-24T01:50:43.514Z,62.81
2018-02-24T01:51:09.627Z,63.1
2018-02-24T01:51:35.739Z,63
2018-02-24T01:52:01.857Z,63.1
2018-02-24T01:52:27.965Z,63.19
2018-02-24T01:52:54.082Z,62.62
2018-02-24T01:53:20.198Z,62.81
2018-02-24T01:53:46.306Z,63.19
2018-02-24T01:54:12.444Z,62.53
2018-02-24T01:54:38.542Z,62.34
2018-02-24T01:55:04.654Z,62.44
2018-02-24T01:55:30.746Z,62.72
2018-02-24T01:55:56.848Z,62.53
2018-02-24T01:56:22.952Z,62.81
2018-02-24T01:56:49.101Z,62.91
2018-02-24T01:57:15.196Z,62.72
2018-02-24T01:57:41.310Z,62.44
2018-02-24T01:58:07.405Z,62.53
2018-02-24T01:58:33.508Z,62.53
2018-02-24T01:58:59.607Z,62.25
2018-02-24T01:59:25.701Z,62.53
2018-02-24T01:59:51.798Z,62.15
2018-02-24T02:00:17.903Z,62.15
2018-02-24T02:00:44.003Z,62.15
2018-02-24T02:01:10.115Z,62.91
2018-02-24T02:01:36.214Z,62.34
2018-02-24T02:02:02.318Z,62.06
2018-02-24T02:02:28.419Z,62.15
2018-02-24T02:02:54.512Z,62.44
2018-02-24T02:03:20.610Z,62.25
2018-02-24T02:03:46.712Z,61.77
2018-02-24T02:04:12.810Z,61.77
2018-02-24T02:04:38.903Z,62.06
2018-02-24T02:05:05.000Z,62.06
2018-02-24T02:05:31.103Z,62.15
2018-02-24T02:05:57.202Z,61.96
2018-02-24T02:06:23.296Z,61.77
2018-02-24T02:06:49.401Z,62.06
2018-02-24T02:07:15.497Z,61.77
2018-02-24T02:07:41.599Z,61.87
2018-02-24T02:08:07.691Z,61.87
2018-02-24T02:08:33.800Z,61.87
2018-02-24T02:08:59.902Z,61.87
2018-02-24T02:09:26.008Z,61.77
2018-02-24T02:09:52.102Z,61.77
2018-02-24T02:10:18.202Z,61.87
2018-02-24T02:10:44.298Z,61.77
2018-02-24T02:11:10.402Z,62.15
2018-02-24T02:11:36.497Z,61.87
2018-02-24T02:12:02.595Z,61.49
2018-02-24T02:12:28.694Z,61.3
2018-02-24T02:12:54.794Z,61.21
2018-02-24T02:13:20.886Z,61.3
2018-02-24T02:13:46.982Z,61.3
2018-02-24T02:14:13.080Z,61.3
2018-02-24T02:14:39.181Z,61.4
2018-02-24T02:15:05.283Z,61.3
2018-02-24T02:15:31.374Z,61.49
2018-02-24T02:15:57.479Z,61.21
2018-02-24T02:16:23.576Z,61.21
2018-02-24T02:16:49.669Z,61.3
2018-02-24T02:17:15.764Z,61.4
2018-02-24T02:17:41.866Z,61.3
2018-02-24T02:18:07.965Z,61.21
2018-02-24T02:18:34.067Z,61.3
2018-02-24T02:19:00.178Z,61.21
2018-02-24T02:19:26.277Z,61.3
2018-02-24T02:19:52.390Z,61.3
2018-02-24T02:20:18.499Z,61.3
2018-02-24T02:20:44.601Z,61.4
2018-02-24T02:21:10.695Z,61.4
2018-02-24T02:21:36.796Z,61.21
2018-02-24T02:22:02.891Z,61.4
2018-02-24T02:22:28.988Z,61.3
2018-02-24T02:22:55.093Z,61.3
2018-02-24T02:23:21.192Z,61.49
2018-02-24T02:23:47.290Z,61.21
2018-02-24T02:24:13.401Z,61.3
2018-02-24T02:24:39.502Z,61.58
2018-02-24T02:25:05.597Z,61.68
2018-02-24T02:25:31.697Z,61.68
2018-02-24T02:25:57.795Z,61.3
2018-02-24T02:26:23.896Z,61.4
2018-02-24T02:26:49.998Z,61.21
2018-02-24T02:27:16.086Z,61.3
2018-02-24T02:27:42.188Z,61.3
2018-02-24T02:28:08.281Z,61.3
2018-02-24T02:28:34.378Z,61.3
2018-02-24T02:29:00.481Z,61.58
2018-02-24T02:29:26.575Z,61.87
2018-02-24T02:29:52.675Z,61.58
2018-02-24T02:30:18.776Z,61.49
2018-02-24T02:30:44.873Z,61.49
2018-02-24T02:31:10.974Z,61.58
2018-02-24T02:31:37.070Z,61.58
2018-02-24T02:32:03.166Z,61.58
2018-02-24T02:32:29.278Z,61.87
2018-02-24T02:32:55.377Z,61.21
2018-02-24T02:33:21.474Z,61.3
2018-02-24T02:33:47.584Z,61.58
2018-02-24T02:34:13.693Z,61.49
2018-02-24T02:34:39.807Z,60.83
2018-02-24T02:35:05.914Z,61.11
2018-02-24T02:35:32.027Z,61.21
2018-02-24T02:35:58.120Z,61.3
2018-02-24T02:36:24.223Z,61.02
2018-02-24T02:36:50.335Z,61.02
2018-02-24T02:37:16.437Z,61.11
2018-02-24T02:37:42.528Z,61.11
2018-02-24T02:38:08.619Z,60.93
2018-02-24T02:38:34.714Z,61.02
2018-02-24T02:39:00.819Z,61.21
2018-02-24T02:39:26.915Z,61.4
2018-02-24T02:39:53.021Z,60.93
2018-02-24T02:40:19.119Z,61.3
2018-02-24T02:40:45.218Z,60.93
2018-02-24T02:41:11.323Z,60.83
2018-02-24T02:41:37.415Z,60.83
2018-02-24T02:42:03.520Z,60.36
2018-02-24T02:42:29.613Z,60.36
2018-02-24T02:42:55.718Z,60.36
2018-02-24T02:43:21.811Z,60.46
2018-02-24T02:43:47.932Z,60.55
2018-02-24T02:44:14.033Z,60.83
2018-02-24T02:44:40.127Z,60.83
2018-02-24T02:45:06.223Z,61.21
2018-02-24T02:45:32.326Z,60.93
2018-02-24T02:45:58.442Z,61.11
2018-02-24T02:46:24.537Z,61.4
2018-02-24T02:46:50.637Z,61.49
2018-02-24T02:47:16.731Z,61.02
2018-02-24T02:47:42.834Z,61.21
2018-02-24T02:48:08.943Z,61.02
2018-02-24T02:48:35.059Z,61.49
2018-02-24T02:49:01.162Z,61.77
2018-02-24T02:49:27.253Z,61.58
2018-02-24T02:49:53.352Z,61.58
2018-02-24T02:50:19.452Z,61.02
2018-02-24T02:50:45.567Z,61.02
2018-02-24T02:51:11.668Z,61.11
2018-02-24T02:51:37.757Z,61.4
2018-02-24T02:52:03.856Z,61.49
2018-02-24T02:52:29.960Z,61.3
2018-02-24T02:52:56.060Z,61.3
2018-02-24T02:53:22.154Z,61.21
2018-02-24T02:53:48.260Z,61.49
2018-02-24T02:54:14.367Z,61.4
2018-02-24T02:54:40.496Z,61.3
2018-02-24T02:55:06.591Z,61.4
2018-02-24T02:55:32.695Z,61.21
2018-02-24T02:55:58.796Z,61.11
2018-02-24T02:56:24.891Z,61.21
2018-02-24T02:56:51.004Z,61.21
2018-02-24T02:57:17.105Z,61.3
2018-02-24T02:57:43.199Z,61.21
2018-02-24T02:58:09.299Z,61.21
2018-02-24T02:58:35.405Z,61.3
2018-02-24T02:59:01.503Z,61.4
2018-02-24T02:59:27.605Z,61.58
2018-02-24T02:59:53.720Z,61.3
2018-02-24T03:00:19.816Z,61.58
2018-02-24T03:00:45.920Z,61.87
2018-02-24T03:01:12.012Z,61.68
2018-02-24T03:01:38.110Z,61.58
2018-02-24T03:02:04.210Z,61.02
2018-02-24T03:02:30.322Z,61.21
2018-02-24T03:02:56.421Z,61.11
2018-02-24T03:03:22.520Z,61.77
2018-02-24T03:03:48.653Z,61.58
2018-02-24T03:04:14.747Z,61.3
2018-02-24T03:04:40.840Z,61.3
2018-02-24T03:05:06.943Z,61.49
2018-02-24T03:05:33.040Z,61.3
2018-02-24T03:05:59.132Z,61.4
2018-02-24T03:06:25.233Z,61.49
2018-02-24T03:06:51.334Z,61.49
2018-02-24T03:07:17.427Z,61.68
2018-02-24T03:07:43.530Z,61.49
2018-02-24T03:08:09.623Z,60.93
2018-02-24T03:08:35.718Z,61.11
2018-02-24T03:09:01.826Z,61.4
2018-02-24T03:09:27.911Z,61.58
2018-02-24T03:09:54.011Z,61.58
2018-02-24T03:10:20.114Z,61.77
2018-02-24T03:10:46.208Z,61.49
2018-02-24T03:11:12.305Z,61.3
2018-02-24T03:11:38.403Z,61.21
2018-02-24T03:12:04.507Z,61.3
2018-02-24T03:12:30.602Z,61.3
2018-02-24T03:12:56.698Z,61.3
2018-02-24T03:13:22.800Z,61.4
2018-02-24T03:13:48.895Z,61.3
2018-02-24T03:14:14.995Z,61.58
2018-02-24T03:14:41.098Z,61.58
2018-02-24T03:15:07.212Z,61.77
2018-02-24T03:15:33.307Z,61.77
2018-02-24T03:15:59.407Z,61.4
2018-02-24T03:16:25.498Z,61.68
2018-02-24T03:16:51.595Z,61.58
2018-02-24T03:17:17.735Z,61.68
2018-02-24T03:17:43.797Z,61.68
2018-02-24T03:18:09.894Z,61.68
2018-02-24T03:18:35.994Z,61.68
2018-02-24T03:19:02.085Z,61.58
2018-02-24T03:19:28.194Z,61.21
2018-02-24T03:19:54.291Z,61.58
2018-02-24T03:20:20.404Z,61.3
2018-02-24T03:20:46.505Z,61.4
2018-02-24T03:21:12.600Z,61.3
2018-02-24T03:21:38.697Z,61.3
2018-02-24T03:22:04.803Z,61.68
2018-02-24T03:22:30.896Z,61.49
2018-02-24T03:22:56.996Z,61.49
2018-02-24T03:23:23.088Z,61.58
2018-02-24T03:23:49.182Z,61.4
2018-02-24T03:24:15.284Z,61.3
2018-02-24T03:24:41.382Z,61.21
2018-02-24T03:25:07.501Z,61.21
2018-02-24T03:25:33.605Z,61.3
2018-02-24T03:25:59.698Z,61.4
2018-02-24T03:26:25.799Z,61.3
2018-02-24T03:26:51.895Z,61.3
2018-02-24T03:27:17.996Z,61.68
2018-02-24T03:27:44.092Z,61.96
2018-02-24T03:28:10.200Z,61.68
2018-02-24T03:28:36.289Z,61.96
2018-02-24T03:29:02.387Z,61.96
2018-02-24T03:29:28.481Z,61.77
2018-02-24T03:29:54.577Z,61.96
2018-02-24T03:30:20.686Z,61.87
2018-02-24T03:30:46.790Z,62.06
2018-02-24T03:31:12.894Z,62.62
2018-02-24T03:31:38.986Z,62.44
2018-02-24T03:32:05.088Z,62.62
2018-02-24T03:32:31.183Z,62.06
2018-02-24T03:32:57.305Z,61.87
2018-02-24T03:33:23.399Z,62.06
2018-02-24T03:33:49.501Z,62.25
2018-02-24T03:34:15.614Z,62.53
2018-02-24T03:34:41.712Z,62.25
2018-02-24T03:35:07.811Z,62.25
2018-02-24T03:35:33.910Z,62.15
2018-02-24T03:36:00.004Z,62.44
2018-02-24T03:36:26.104Z,62.15
2018-02-24T03:36:52.211Z,62.15
2018-02-24T03:37:18.317Z,62.25
2018-02-24T03:37:44.433Z,62.34
2018-02-24T03:38:10.534Z,62.25
2018-02-24T03:38:36.631Z,62.34
2018-02-24T03:39:02.726Z,62.34
2018-02-24T03:39:28.830Z,62.25
2018-02-24T03:39:54.926Z,62.25
2018-02-24T03:40:21.030Z,61.96
2018-02-24T03:40:47.148Z,61.87
2018-02-24T03:41:13.227Z,62.06
2018-02-24T03:41:39.319Z,62.53
2018-02-24T03:42:05.417Z,62.25
2018-02-24T03:42:31.518Z,62.34
2018-02-24T03:42:57.647Z,62.34
2018-02-24T03:43:23.749Z,62.53
2018-02-24T03:43:49.845Z,62.72
2018-02-24T03:44:15.947Z,62.72
2018-02-24T03:44:42.040Z,62.53
2018-02-24T03:45:08.136Z,62.72
2018-02-24T03:45:34.238Z,62.81
2018-02-24T03:46:00.331Z,63.19
2018-02-24T03:46:26.433Z,62.44
2018-02-24T03:46:52.544Z,62.44
2018-02-24T03:47:18.659Z,62.53
2018-02-24T03:47:44.762Z,62.81
2018-02-24T03:48:10.860Z,62.81
2018-02-24T03:48:36.991Z,62.53
2018-02-24T03:49:03.086Z,62.53
2018-02-24T03:49:29.184Z,62.53
2018-02-24T03:49:55.279Z,62.53
2018-02-24T03:50:21.381Z,62.72
2018-02-24T03:50:47.479Z,62.81
2018-02-24T03:51:13.579Z,62.72
2018-02-24T03:51:39.725Z,62.72
2018-02-24T03:52:05.808Z,62.34
2018-02-24T03:52:31.903Z,62.53
2018-02-24T03:52:57.999Z,62.72
2018-02-24T03:53:24.101Z,62.62
2018-02-24T03:53:50.193Z,62.81
2018-02-24T03:54:16.298Z,62.72
2018-02-24T03:54:42.408Z,62.72
2018-02-24T03:55:08.519Z,62.81
2018-02-24T03:55:34.618Z,62.91
2018-02-24T03:56:00.723Z,63.19
2018-02-24T03:56:26.821Z,63.19
2018-02-24T03:56:52.918Z,62.72
2018-02-24T03:57:19.017Z,62.81
2018-02-24T03:57:45.122Z,63.1
2018-02-24T03:58:11.223Z,63.19
2018-02-24T03:58:37.335Z,63
2018-02-24T03:59:03.438Z,62.81
2018-02-24T03:59:29.531Z,62.91
2018-02-24T03:59:55.627Z,62.91
2018-02-24T04:00:21.728Z,62.81
2018-02-24T04:00:47.829Z,63
2018-02-24T04:01:13.924Z,62.72
2018-02-24T04:01:40.024Z,63
2018-02-24T04:02:06.117Z,63.1
2018-02-24T04:02:32.247Z,63.1
2018-02-24T04:02:58.347Z,62.81
2018-02-24T04:03:24.446Z,63.1
2018-02-24T04:03:50.545Z,63.19
2018-02-24T04:04:16.641Z,63
2018-02-24T04:04:42.741Z,62.72
2018-02-24T04:05:08.838Z,63.1
2018-02-24T04:05:34.934Z,62.62
2018-02-24T04:06:01.030Z,62.53
2018-02-24T04:06:27.143Z,62.53
2018-02-24T04:06:53.233Z,62.62
2018-02-24T04:07:19.354Z,62.44
2018-02-24T04:07:45.458Z,62.72
2018-02-24T04:08:11.552Z,62.72
2018-02-24T04:08:37.648Z,62.72
2018-02-24T04:09:03.750Z,62.72
2018-02-24T04:09:29.848Z,62.62
2018-02-24T04:09:55.944Z,62.62
2018-02-24T04:10:22.045Z,62.72
2018-02-24T04:10:48.139Z,62.72
2018-02-24T04:11:14.239Z,62.62
2018-02-24T04:11:40.339Z,62.72
2018-02-24T04:12:06.439Z,62.44
2018-02-24T04:12:32.552Z,62.53
2018-02-24T04:12:58.669Z,62.53
2018-02-24T04:13:24.749Z,62.72
2018-02-24T04:13:50.840Z,62.53
2018-02-24T04:14:16.956Z,62.34
2018-02-24T04:14:43.053Z,62.44
2018-02-24T04:15:09.141Z,62.53
2018-02-24T04:15:35.261Z,62.53
2018-02-24T04:16:01.355Z,62.81
2018-02-24T04:16:27.523Z,63.19
2018-02-24T04:16:53.571Z,62.91
2018-02-24T04:17:19.667Z,62.91
2018-02-24T04:17:45.772Z,62.91
2018-02-24T04:18:11.862Z,63.1
2018-02-24T04:18:37.983Z,62.81
2018-02-24T04:19:04.077Z,63.1
2018-02-24T04:19:30.176Z,62.81
2018-02-24T04:19:56.279Z,62.91
2018-02-24T04:20:22.370Z,63.29
2018-02-24T04:20:48.467Z,62.81
2018-02-24T04:21:14.564Z,63.19
2018-02-24T04:21:40.656Z,63.19
2018-02-24T04:22:06.766Z,62.91
2018-02-24T04:22:32.861Z,62.72
2018-02-24T04:22:58.965Z,63.19
2018-02-24T04:23:25.065Z,63
2018-02-24T04:23:51.163Z,63
2018-02-24T04:24:17.260Z,63
2018-02-24T04:24:43.355Z,63.1
2018-02-24T04:25:09.450Z,63.57
2018-02-24T04:25:35.551Z,63
2018-02-24T04:26:01.650Z,62.91
2018-02-24T04:26:27.759Z,62.91
2018-02-24T04:26:53.860Z,62.91
2018-02-24T04:27:19.955Z,62.91
2018-02-24T04:27:46.058Z,62.91
2018-02-24T04:28:12.151Z,63
2018-02-24T04:28:38.252Z,62.81
2018-02-24T04:29:04.363Z,62.91
2018-02-24T04:29:30.459Z,63.1
2018-02-24T04:29:56.563Z,62.81
2018-02-24T04:30:22.657Z,62.81
2018-02-24T04:30:48.756Z,63.1
2018-02-24T04:31:14.858Z,63.1
2018-02-24T04:31:40.955Z,63.1
2018-02-24T04:32:07.049Z,62.91
2018-02-24T04:32:33.150Z,63.1
2018-02-24T04:32:59.248Z,63.38
2018-02-24T04:33:25.342Z,63
2018-02-24T04:33:51.443Z,63
2018-02-24T04:34:17.534Z,62.91
2018-02-24T04:34:43.631Z,62.91
2018-02-24T04:35:09.727Z,63.29
2018-02-24T04:35:35.820Z,63
2018-02-24T04:36:01.928Z,62.91
2018-02-24T04:36:28.038Z,62.91
2018-02-24T04:36:54.141Z,62.91
2018-02-24T04:37:20.238Z,63
2018-02-24T04:37:46.337Z,62.91
2018-02-24T04:38:12.432Z,63
2018-02-24T04:38:38.545Z,62.91
2018-02-24T04:39:04.644Z,62.91
2018-02-24T04:39:30.743Z,62.91
2018-02-24T04:39:56.840Z,63.19
2018-02-24T04:40:22.954Z,63.1
2018-02-24T04:40:49.053Z,63
2018-02-24T04:41:15.151Z,63
2018-02-24T04:41:41.252Z,63.1
2018-02-24T04:42:07.348Z,62.72
2018-02-24T04:42:33.467Z,62.81
2018-02-24T04:42:59.559Z,62.91
2018-02-24T04:43:25.655Z,62.81
2018-02-24T04:43:51.756Z,62.91
2018-02-24T04:44:17.884Z,62.91
2018-02-24T04:44:43.980Z,62.91
2018-02-24T04:45:10.098Z,62.81
2018-02-24T04:45:36.194Z,62.91
2018-02-24T04:46:02.288Z,63
2018-02-24T04:46:28.407Z,63.19
2018-02-24T04:46:54.507Z,62.91
2018-02-24T04:47:20.600Z,63.1
2018-02-24T04:47:46.699Z,63.1
2018-02-24T04:48:12.796Z,63.29
2018-02-24T04:48:38.895Z,63
2018-02-24T04:49:04.996Z,62.91
2018-02-24T04:49:31.093Z,62.91
2018-02-24T04:49:57.196Z,62.91
2018-02-24T04:50:23.288Z,62.91
2018-02-24T04:50:49.407Z,62.91
2018-02-24T04:51:15.500Z,63.19
2018-02-24T04:51:41.600Z,63
2018-02-24T04:52:07.721Z,63.19
2018-02-24T04:52:33.816Z,63.1
2018-02-24T04:52:59.938Z,63.1
2018-02-24T04:53:26.033Z,62.81
2018-02-24T04:53:52.128Z,63.1
2018-02-24T04:54:18.236Z,62.91
2018-02-24T04:54:44.327Z,62.81
2018-02-24T04:55:10.426Z,62.81
2018-02-24T04:55:36.526Z,63.19
2018-02-24T04:56:02.636Z,62.91
2018-02-24T04:56:28.733Z,63.57
2018-02-24T04:56:54.839Z,63
2018-02-24T04:57:20.932Z,62.62
2018-02-24T04:57:47.033Z,63.29
2018-02-24T04:58:13.128Z,63
2018-02-24T04:58:39.230Z,63.67
2018-02-24T04:59:05.324Z,63
2018-02-24T04:59:31.429Z,63.57
2018-02-24T04:59:57.531Z,62.91
2018-02-24T05:00:23.625Z,63.38
2018-02-24T05:00:49.721Z,63
2018-02-24T05:01:15.815Z,62.91
2018-02-24T05:01:41.913Z,63
2018-02-24T05:02:08.014Z,63.1
2018-02-24T05:02:34.126Z,63
2018-02-24T05:03:00.224Z,62.91
2018-02-24T05:03:26.316Z,63.1
2018-02-24T05:03:52.417Z,63.29
2018-02-24T05:04:18.514Z,63.1
2018-02-24T05:04:44.615Z,62.91
2018-02-24T05:05:10.714Z,63.45
2018-02-24T05:05:36.813Z,63.67
2018-02-24T05:06:02.916Z,63.73
2018-02-24T05:06:29.014Z,63.67
2018-02-24T05:06:55.110Z,63.38
2018-02-24T05:07:21.212Z,63.38
2018-02-24T05:07:47.310Z,63.48
2018-02-24T05:08:13.403Z,63.67
2018-02-24T05:08:39.506Z,63.85
2018-02-24T05:09:05.600Z,63.48
2018-02-24T05:09:31.713Z,63.67
2018-02-24T05:09:57.815Z,63.76
2018-02-24T05:10:23.918Z,63.48
2018-02-24T05:10:50.011Z,63.67
2018-02-24T05:11:16.137Z,63.48
2018-02-24T05:11:42.240Z,63.48
2018-02-24T05:12:08.335Z,63.38
2018-02-24T05:12:34.440Z,63.57
2018-02-24T05:13:00.538Z,63.45
2018-02-24T05:13:26.639Z,64.23
2018-02-24T05:13:52.756Z,64.2
2018-02-24T05:14:18.848Z,64.29
2018-02-24T05:14:44.952Z,63.82
2018-02-24T05:15:11.046Z,63.63
2018-02-24T05:15:37.147Z,64.23
2018-02-24T05:16:03.245Z,64.14
2018-02-24T05:16:29.344Z,63.85
2018-02-24T05:16:55.441Z,64.01
2018-02-24T05:17:21.558Z,63.85
2018-02-24T05:17:47.671Z,63.76
2018-02-24T05:18:13.769Z,63.95
2018-02-24T05:18:39.870Z,63.76
2018-02-24T05:19:05.968Z,64.04
2018-02-24T05:19:32.064Z,64.04
2018-02-24T05:19:58.168Z,64.04
2018-02-24T05:20:24.273Z,63.76
2018-02-24T05:20:50.367Z,63.67
2018-02-24T05:21:16.468Z,63.85
2018-02-24T05:21:42.563Z,64.14
2018-02-24T05:22:08.658Z,64.04
2018-02-24T05:22:34.761Z,64.14
2018-02-24T05:23:00.857Z,63.95
2018-02-24T05:23:26.955Z,64.01
2018-02-24T05:23:53.054Z,63.92
2018-02-24T05:24:19.166Z,64.01
2018-02-24T05:24:45.270Z,63.73
2018-02-24T05:25:11.375Z,64.01
2018-02-24T05:25:37.467Z,63.73
2018-02-24T05:26:03.587Z,63.63
2018-02-24T05:26:29.681Z,64.11
2018-02-24T05:26:55.781Z,64.29
2018-02-24T05:27:21.888Z,64.2
2018-02-24T05:27:47.980Z,64.01
2018-02-24T05:28:14.090Z,63.82
2018-02-24T05:28:40.194Z,64.48
2018-02-24T05:29:06.292Z,64.76
2018-02-24T05:29:32.394Z,64.76
2018-02-24T05:29:58.492Z,64.39
2018-02-24T05:30:24.590Z,64.67
2018-02-24T05:30:50.700Z,65.05
2018-02-24T05:31:16.815Z,65.14
2018-02-24T05:31:42.952Z,64.86
2018-02-24T05:32:09.007Z,64.86
2018-02-24T05:32:35.109Z,64.67
2018-02-24T05:33:01.196Z,64.95
2018-02-24T05:33:27.311Z,64.95
2018-02-24T05:33:53.407Z,65.05
2018-02-24T05:34:19.519Z,65.33
2018-02-24T05:34:45.621Z,64.86
2018-02-24T05:35:11.715Z,65.05
2018-02-24T05:35:37.816Z,64.95
2018-02-24T05:36:03.909Z,65.05
2018-02-24T05:36:30.008Z,64.95
2018-02-24T05:36:56.108Z,64.86
2018-02-24T05:37:22.219Z,64.76
2018-02-24T05:37:48.318Z,65.33
2018-02-24T05:38:14.414Z,65.14
2018-02-24T05:38:40.517Z,65.23
2018-02-24T05:39:06.612Z,65.05